createdAt,value
2023-02-07T00:00:36.381Z,79.76
2023-02-07T00:01:36.331Z,80.08
2023-02-07T00:02:36.315Z,80.57
2023-02-07T00:03:36.295Z,78.47
2023-02-07T00:04:36.278Z,79.28
2023-02-07T00:05:36.624Z,78.96
2023-02-07T00:06:36.265Z,77.34
2023-02-07T00:07:36.221Z,80.73
2023-02-07T00:08:36.204Z,78.15
2023-02-07T00:09:36.179Z,80.24
2023-02-07T00:10:36.204Z,79.76
2023-02-07T00:11:36.141Z,79.60
2023-02-07T00:12:36.126Z,75.73
2023-02-07T00:13:36.109Z,79.60
2023-02-07T00:14:36.085Z,79.60
2023-02-07T00:15:36.463Z,78.31
2023-02-07T00:16:36.109Z,81.86
2023-02-07T00:17:36.023Z,79.92
2023-02-07T00:18:37.012Z,79.12
2023-02-07T00:19:36.000Z,77.67
2023-02-07T00:20:36.011Z,77.02
2023-02-07T00:21:35.953Z,79.28
2023-02-07T00:22:36.939Z,74.93
2023-02-07T00:23:35.929Z,79.28
2023-02-07T00:24:35.904Z,77.99
2023-02-07T00:25:36.376Z,80.41
2023-02-07T00:26:35.870Z,80.08
2023-02-07T00:27:35.865Z,79.60
2023-02-07T00:28:35.889Z,80.08
2023-02-07T00:29:35.810Z,79.60
2023-02-07T00:30:35.882Z,80.24
2023-02-07T00:31:35.882Z,77.67
2023-02-07T00:32:35.750Z,79.12
2023-02-07T00:33:35.736Z,80.41
2023-02-07T00:34:35.715Z,82.34
2023-02-07T00:35:35.985Z,79.28
2023-02-07T00:36:35.680Z,80.89
2023-02-07T00:37:35.660Z,80.57
2023-02-07T00:38:35.643Z,80.41
2023-02-07T00:39:35.615Z,78.79
2023-02-07T00:40:35.632Z,81.05
2023-02-07T00:41:35.582Z,80.57
2023-02-07T00:42:35.562Z,78.96
2023-02-07T00:43:35.547Z,77.18
2023-02-07T00:44:35.530Z,78.79
2023-02-07T00:45:35.688Z,78.63
2023-02-07T00:46:35.522Z,81.05
2023-02-07T00:47:36.467Z,79.60
2023-02-07T00:48:35.450Z,79.60
2023-02-07T00:49:36.329Z,79.12
2023-02-07T00:50:35.416Z,77.50
2023-02-07T00:51:35.427Z,80.41
2023-02-07T00:52:36.289Z,80.73
2023-02-07T00:53:35.408Z,79.28
2023-02-07T00:54:35.337Z,78.63
2023-02-07T00:55:35.634Z,77.99
2023-02-07T00:56:35.322Z,79.76
2023-02-07T00:57:35.288Z,76.70
2023-02-07T00:58:35.265Z,79.44
2023-02-07T00:59:35.227Z,78.31
2023-02-07T01:00:35.221Z,79.76
2023-02-07T01:01:35.302Z,77.02
2023-02-07T01:02:35.182Z,80.57
2023-02-07T01:03:35.158Z,78.47
2023-02-07T01:04:35.159Z,79.12
2023-02-07T01:05:35.261Z,77.50
2023-02-07T01:06:35.133Z,79.76
2023-02-07T01:07:35.087Z,76.38
2023-02-07T01:08:35.065Z,80.41
2023-02-07T01:09:35.051Z,78.63
2023-02-07T01:10:35.026Z,79.28
2023-02-07T01:11:35.035Z,78.31
2023-02-07T01:12:34.993Z,76.86
2023-02-07T01:13:34.972Z,79.12
2023-02-07T01:14:34.947Z,79.28
2023-02-07T01:15:34.941Z,80.24
2023-02-07T01:16:34.954Z,79.44
2023-02-07T01:17:34.890Z,78.15
2023-02-07T01:18:34.889Z,79.28
2023-02-07T01:19:34.854Z,77.99
2023-02-07T01:20:34.835Z,80.08
2023-02-07T01:21:34.841Z,77.83
2023-02-07T01:22:35.707Z,79.60
2023-02-07T01:23:34.770Z,78.79
2023-02-07T01:24:34.749Z,76.86
2023-02-07T01:25:34.739Z,79.28
2023-02-07T01:26:34.734Z,79.12
2023-02-07T01:27:34.688Z,78.96
2023-02-07T01:28:34.663Z,79.76
2023-02-07T01:29:34.674Z,79.28
2023-02-07T01:30:34.672Z,79.76
2023-02-07T01:31:34.705Z,80.08
2023-02-07T01:32:34.596Z,79.60
2023-02-07T01:33:34.609Z,77.34
2023-02-07T01:34:34.577Z,78.47
2023-02-07T01:35:34.528Z,80.24
2023-02-07T01:36:34.541Z,77.02
2023-02-07T01:37:34.488Z,76.86
2023-02-07T01:38:34.465Z,80.08
2023-02-07T01:39:34.445Z,78.15
2023-02-07T01:40:34.431Z,78.15
2023-02-07T01:41:34.438Z,79.28
2023-02-07T01:42:34.386Z,86.85
2023-02-07T01:43:35.330Z,79.76
2023-02-07T01:44:34.349Z,81.53
2023-02-07T01:45:34.332Z,78.31
2023-02-07T01:46:34.378Z,78.31
2023-02-07T01:47:34.293Z,78.79
2023-02-07T01:48:35.197Z,79.28
2023-02-07T01:49:35.209Z,80.89
2023-02-07T01:50:34.228Z,80.08
2023-02-07T01:51:35.240Z,77.50
2023-02-07T01:52:34.704Z,75.25
2023-02-07T01:53:34.169Z,78.96
2023-02-07T01:54:34.694Z,80.08
2023-02-07T01:55:35.161Z,77.99
2023-02-07T01:56:34.149Z,77.99
2023-02-07T01:57:34.104Z,77.99
2023-02-07T01:58:34.076Z,79.12
2023-02-07T01:59:34.054Z,79.28
2023-02-07T02:00:34.036Z,78.31
2023-02-07T02:01:34.121Z,79.12
2023-02-07T02:02:35.043Z,78.31
2023-02-07T02:03:33.977Z,79.60
2023-02-07T02:04:33.966Z,79.12
2023-02-07T02:05:34.717Z,78.63
2023-02-07T02:06:33.945Z,79.76
2023-02-07T02:07:33.894Z,79.76
2023-02-07T02:08:33.887Z,78.96
2023-02-07T02:09:33.860Z,77.99
2023-02-07T02:10:33.833Z,79.28
2023-02-07T02:11:33.845Z,79.44
2023-02-07T02:12:33.796Z,80.08
2023-02-07T02:13:33.777Z,79.92
2023-02-07T02:14:33.756Z,79.76
2023-02-07T02:15:33.768Z,79.12
2023-02-07T02:16:33.712Z,79.92
2023-02-07T02:17:33.728Z,78.47
2023-02-07T02:18:33.681Z,80.41
2023-02-07T02:19:33.654Z,77.50
2023-02-07T02:20:33.639Z,76.38
2023-02-07T02:21:33.614Z,78.96
2023-02-07T02:22:33.641Z,77.83
2023-02-07T02:23:33.588Z,79.60
2023-02-07T02:24:33.554Z,79.44
2023-02-07T02:25:33.537Z,78.79
2023-02-07T02:26:33.521Z,78.15
2023-02-07T02:27:33.530Z,80.24
2023-02-07T02:28:33.478Z,80.57
2023-02-07T02:29:33.460Z,80.57
2023-02-07T02:30:33.459Z,81.37
2023-02-07T02:31:33.429Z,79.60
2023-02-07T02:32:33.432Z,80.24
2023-02-07T02:33:33.388Z,79.92
2023-02-07T02:34:33.371Z,78.79
2023-02-07T02:35:33.342Z,77.67
2023-02-07T02:36:33.321Z,77.02
2023-02-07T02:37:33.330Z,79.28
2023-02-07T02:38:33.282Z,80.73
2023-02-07T02:39:33.265Z,78.31
2023-02-07T02:40:33.249Z,80.57
2023-02-07T02:41:33.225Z,80.89
2023-02-07T02:42:33.233Z,79.92
2023-02-07T02:43:33.183Z,79.44
2023-02-07T02:44:33.166Z,74.28
2023-02-07T02:45:33.139Z,77.50
2023-02-07T02:46:33.150Z,78.15
2023-02-07T02:47:33.153Z,77.67
2023-02-07T02:48:33.085Z,79.28
2023-02-07T02:49:33.064Z,79.44
2023-02-07T02:50:33.046Z,79.28
2023-02-07T02:51:33.025Z,78.63
2023-02-07T02:52:49.635Z,79.12
2023-02-07T02:53:35.013Z,79.92
2023-02-07T02:54:32.964Z,80.08
2023-02-07T02:55:32.947Z,78.63
2023-02-07T02:56:32.925Z,80.08
2023-02-07T02:57:32.935Z,77.67
2023-02-07T02:58:32.890Z,79.28
2023-02-07T02:59:32.863Z,78.63
2023-02-07T03:00:32.840Z,82.34
2023-02-07T03:01:32.840Z,77.50
2023-02-07T03:02:32.829Z,79.44
2023-02-07T03:03:32.782Z,78.15
2023-02-07T03:04:32.761Z,80.73
2023-02-07T03:05:32.797Z,80.08
2023-02-07T03:06:32.723Z,79.76
2023-02-07T03:07:32.734Z,80.24
2023-02-07T03:08:32.678Z,78.79
2023-02-07T03:09:32.664Z,79.12
2023-02-07T03:10:32.638Z,79.60
2023-02-07T03:11:32.621Z,80.41
2023-02-07T03:12:32.628Z,80.41
2023-02-07T03:13:32.590Z,80.57
2023-02-07T03:14:32.559Z,80.41
2023-02-07T03:15:32.552Z,79.92
2023-02-07T03:16:32.548Z,79.76
2023-02-07T03:17:32.511Z,77.34
2023-02-07T03:18:32.488Z,79.92
2023-02-07T03:19:32.457Z,78.31
2023-02-07T03:20:32.436Z,80.73
2023-02-07T03:21:32.446Z,81.05
2023-02-07T03:22:32.427Z,80.57
2023-02-07T03:23:32.386Z,80.24
2023-02-07T03:24:32.356Z,81.05
2023-02-07T03:25:32.341Z,82.18
2023-02-07T03:26:32.317Z,80.08
2023-02-07T03:27:32.816Z,79.76
2023-02-07T03:28:32.791Z,78.47
2023-02-07T03:29:32.574Z,80.41
2023-02-07T03:30:32.385Z,79.76
2023-02-07T03:31:32.455Z,80.24
2023-02-07T03:32:32.292Z,81.21
2023-02-07T03:33:32.253Z,79.28
2023-02-07T03:34:32.285Z,80.08
2023-02-07T03:35:32.128Z,79.76
2023-02-07T03:36:32.383Z,78.63
2023-02-07T03:37:32.257Z,79.28
2023-02-07T03:38:32.257Z,80.08
2023-02-07T03:39:32.063Z,80.89
2023-02-07T03:40:32.177Z,79.76
2023-02-07T03:41:32.023Z,80.57
2023-02-07T03:42:32.023Z,80.08
2023-02-07T03:43:31.976Z,81.37
2023-02-07T03:44:31.966Z,81.05
2023-02-07T03:45:31.947Z,82.34
2023-02-07T03:46:32.912Z,81.05
2023-02-07T03:47:31.921Z,80.41
2023-02-07T03:48:31.880Z,80.08
2023-02-07T03:49:31.852Z,79.12
2023-02-07T03:50:31.824Z,81.86
2023-02-07T03:51:31.816Z,80.89
2023-02-07T03:52:31.811Z,79.92
2023-02-07T03:53:31.786Z,79.60
2023-02-07T03:54:31.779Z,80.57
2023-02-07T03:55:31.737Z,79.76
2023-02-07T03:56:31.706Z,81.69
2023-02-07T03:57:31.716Z,82.34
2023-02-07T03:58:31.666Z,79.60
2023-02-07T03:59:31.650Z,79.76
2023-02-07T04:00:31.627Z,82.66
2023-02-07T04:01:31.615Z,78.79
2023-02-07T04:02:31.616Z,80.57
2023-02-07T04:03:31.569Z,80.57
2023-02-07T04:04:31.549Z,81.53
2023-02-07T04:05:31.531Z,83.14
2023-02-07T04:06:31.513Z,79.60
2023-02-07T04:07:31.518Z,81.21
2023-02-07T04:08:31.469Z,78.96
2023-02-07T04:09:31.447Z,80.24
2023-02-07T04:10:31.430Z,81.21
2023-02-07T04:11:31.413Z,81.37
2023-02-07T04:12:31.418Z,81.53
2023-02-07T04:13:32.372Z,81.37
2023-02-07T04:14:31.346Z,81.53
2023-02-07T04:15:31.340Z,80.24
2023-02-07T04:16:31.393Z,82.02
2023-02-07T04:17:31.638Z,81.21
2023-02-07T04:18:32.275Z,81.53
2023-02-07T04:19:31.260Z,81.37
2023-02-07T04:20:31.233Z,81.05
2023-02-07T04:21:31.216Z,80.08
2023-02-07T04:22:31.226Z,81.37
2023-02-07T04:23:31.203Z,80.89
2023-02-07T04:24:31.158Z,82.34
2023-02-07T04:25:31.150Z,81.37
2023-02-07T04:26:31.119Z,81.21
2023-02-07T04:27:31.100Z,82.66
2023-02-07T04:28:31.099Z,82.34
2023-02-07T04:29:31.059Z,80.41
2023-02-07T04:30:31.093Z,79.76
2023-02-07T04:31:31.063Z,81.21
2023-02-07T04:32:30.996Z,83.14
2023-02-07T04:33:31.013Z,82.02
2023-02-07T04:34:30.959Z,83.79
2023-02-07T04:35:30.932Z,82.98
2023-02-07T04:36:30.915Z,81.53
2023-02-07T04:37:30.892Z,82.18
2023-02-07T04:38:30.917Z,79.44
2023-02-07T04:39:30.849Z,81.37
2023-02-07T04:40:30.830Z,81.05
2023-02-07T04:41:30.811Z,82.66
2023-02-07T04:42:30.791Z,81.86
2023-02-07T04:43:30.801Z,81.05
2023-02-07T04:44:30.750Z,82.98
2023-02-07T04:45:30.774Z,82.02
2023-02-07T04:46:31.719Z,82.18
2023-02-07T04:47:30.688Z,82.18
2023-02-07T04:48:30.700Z,81.69
2023-02-07T04:49:33.078Z,81.37
2023-02-07T04:50:30.630Z,80.57
2023-02-07T04:51:30.613Z,81.69
2023-02-07T04:52:30.590Z,80.41
2023-02-07T04:53:30.599Z,77.99
2023-02-07T04:54:30.557Z,81.05
2023-02-07T04:55:30.530Z,81.53
2023-02-07T04:56:30.509Z,81.37
2023-02-07T04:57:30.498Z,80.41
2023-02-07T04:58:30.509Z,79.28
2023-02-07T04:59:30.443Z,82.18
2023-02-07T05:00:30.422Z,81.37
2023-02-07T05:01:30.453Z,82.02
2023-02-07T05:02:30.384Z,82.66
2023-02-07T05:03:30.405Z,85.08
2023-02-07T05:04:30.388Z,83.47
2023-02-07T05:05:30.332Z,81.37
2023-02-07T05:06:30.309Z,81.37
2023-02-07T05:07:30.291Z,81.05
2023-02-07T05:08:30.294Z,81.37
2023-02-07T05:09:30.242Z,81.21
2023-02-07T05:10:30.224Z,82.34
2023-02-07T05:11:30.209Z,82.98
2023-02-07T05:12:30.188Z,81.37
2023-02-07T05:13:30.166Z,81.37
2023-02-07T05:14:30.174Z,81.69
2023-02-07T05:15:30.137Z,79.60
2023-02-07T05:16:30.122Z,82.50
2023-02-07T05:17:30.087Z,82.02
2023-02-07T05:18:30.094Z,82.18
2023-02-07T05:19:30.069Z,81.37
2023-02-07T05:20:30.022Z,81.53
2023-02-07T05:21:30.000Z,82.34
2023-02-07T05:22:29.978Z,81.86
2023-02-07T05:23:29.990Z,82.34
2023-02-07T05:24:29.937Z,81.37
2023-02-07T05:25:29.915Z,81.05
2023-02-07T05:26:29.885Z,81.86
2023-02-07T05:27:30.889Z,82.98
2023-02-07T05:28:29.905Z,82.50
2023-02-07T05:29:29.861Z,81.05
2023-02-07T05:30:29.978Z,81.53
2023-02-07T05:31:29.872Z,82.50
2023-02-07T05:32:29.772Z,81.21
2023-02-07T05:33:29.787Z,80.73
2023-02-07T05:34:29.732Z,80.89
2023-02-07T05:35:29.707Z,82.50
2023-02-07T05:36:29.692Z,82.34
2023-02-07T05:37:29.674Z,81.21
2023-02-07T05:38:29.668Z,82.66
2023-02-07T05:39:29.622Z,81.86
2023-02-07T05:40:29.623Z,83.14
2023-02-07T05:41:29.577Z,82.02
2023-02-07T05:42:29.558Z,83.95
2023-02-07T05:43:29.570Z,81.53
2023-02-07T05:44:29.560Z,81.37
2023-02-07T05:45:29.495Z,83.47
2023-02-07T05:46:29.490Z,82.34
2023-02-07T05:47:29.458Z,82.18
2023-02-07T05:48:29.460Z,83.79
2023-02-07T05:49:29.439Z,82.98
2023-02-07T05:50:29.395Z,82.18
2023-02-07T05:51:29.372Z,82.02
2023-02-07T05:52:29.349Z,82.82
2023-02-07T05:53:29.328Z,82.66
2023-02-07T05:54:29.335Z,82.50
2023-02-07T05:55:29.288Z,82.66
2023-02-07T05:56:29.267Z,81.86
2023-02-07T05:57:29.273Z,82.66
2023-02-07T05:58:29.258Z,82.98
2023-02-07T05:59:29.220Z,83.14
2023-02-07T06:00:29.191Z,82.98
2023-02-07T06:01:29.168Z,83.31
2023-02-07T06:02:29.155Z,82.98
2023-02-07T06:03:29.233Z,84.11
2023-02-07T06:04:29.099Z,83.63
2023-02-07T06:05:29.082Z,82.34
2023-02-07T06:06:29.061Z,83.95
2023-02-07T06:07:29.045Z,83.31
2023-02-07T06:08:29.050Z,82.98
2023-02-07T06:09:29.003Z,82.02
2023-02-07T06:10:28.987Z,82.34
2023-02-07T06:11:28.964Z,81.37
2023-02-07T06:12:28.940Z,83.63
2023-02-07T06:13:28.955Z,82.34
2023-02-07T06:14:28.928Z,81.86
2023-02-07T06:15:28.921Z,81.69
2023-02-07T06:16:28.860Z,82.66
2023-02-07T06:17:28.840Z,82.98
2023-02-07T06:18:28.818Z,82.66
2023-02-07T06:19:28.818Z,83.14
2023-02-07T06:20:29.782Z,82.34
2023-02-07T06:21:45.127Z,82.34
2023-02-07T06:22:30.738Z,82.98
2023-02-07T06:23:28.751Z,82.98
2023-02-07T06:24:28.700Z,81.05
2023-02-07T06:25:28.678Z,83.79
2023-02-07T06:26:28.659Z,81.69
2023-02-07T06:27:28.636Z,81.53
2023-02-07T06:28:28.645Z,81.05
2023-02-07T06:29:28.597Z,82.82
2023-02-07T06:30:28.661Z,82.02
2023-02-07T06:31:28.562Z,82.50
2023-02-07T06:32:28.543Z,80.57
2023-02-07T06:33:28.547Z,82.82
2023-02-07T06:34:28.496Z,80.57
2023-02-07T06:35:28.475Z,82.02
2023-02-07T06:36:28.451Z,81.86
2023-02-07T06:37:28.447Z,81.53
2023-02-07T06:38:28.439Z,82.02
2023-02-07T06:39:28.402Z,82.34
2023-02-07T06:40:28.378Z,83.63
2023-02-07T06:41:28.347Z,81.05
2023-02-07T06:42:28.342Z,80.73
2023-02-07T06:43:28.341Z,81.86
2023-02-07T06:44:28.291Z,82.66
2023-02-07T06:45:28.277Z,82.34
2023-02-07T06:46:28.327Z,82.02
2023-02-07T06:47:28.227Z,80.73
2023-02-07T06:48:28.233Z,82.50
2023-02-07T06:49:28.188Z,84.92
2023-02-07T06:50:28.166Z,83.63
2023-02-07T06:51:28.144Z,82.50
2023-02-07T06:52:28.127Z,83.14
2023-02-07T06:53:28.140Z,83.14
2023-02-07T06:54:28.103Z,82.18
2023-02-07T06:55:28.066Z,82.02
2023-02-07T06:56:28.080Z,82.50
2023-02-07T06:57:28.027Z,81.05
2023-02-07T06:58:28.033Z,82.98
2023-02-07T06:59:27.986Z,83.79
2023-02-07T07:00:27.965Z,83.14
2023-02-07T07:01:28.046Z,81.05
2023-02-07T07:02:27.972Z,81.86
2023-02-07T07:03:27.935Z,80.73
2023-02-07T07:04:27.895Z,82.50
2023-02-07T07:05:27.864Z,80.89
2023-02-07T07:06:27.849Z,82.50
2023-02-07T07:07:27.830Z,85.72
2023-02-07T07:08:27.842Z,83.63
2023-02-07T07:09:27.791Z,81.53
2023-02-07T07:10:27.824Z,82.50
2023-02-07T07:11:27.743Z,81.53
2023-02-07T07:12:27.716Z,82.82
2023-02-07T07:13:27.728Z,81.37
2023-02-07T07:14:27.680Z,83.31
2023-02-07T07:15:27.656Z,82.66
2023-02-07T07:16:27.670Z,82.02
2023-02-07T07:17:27.617Z,82.18
2023-02-07T07:18:27.629Z,82.82
2023-02-07T07:19:27.585Z,81.53
2023-02-07T07:20:27.601Z,81.53
2023-02-07T07:21:27.556Z,81.69
2023-02-07T07:22:27.530Z,81.69
2023-02-07T07:23:27.508Z,80.73
2023-02-07T07:24:27.497Z,81.86
2023-02-07T07:25:27.509Z,80.08
2023-02-07T07:26:36.574Z,82.82
2023-02-07T07:27:29.434Z,84.76
2023-02-07T07:28:27.426Z,80.89
2023-02-07T07:29:27.428Z,82.18
2023-02-07T07:30:27.382Z,80.41
2023-02-07T07:31:27.382Z,80.41
2023-02-07T07:32:33.875Z,82.18
2023-02-07T07:33:29.341Z,78.96
2023-02-07T07:34:27.336Z,78.79
2023-02-07T07:35:27.292Z,80.41
2023-02-07T07:36:27.272Z,80.24
2023-02-07T07:37:27.253Z,79.76
2023-02-07T07:38:27.248Z,80.89
2023-02-07T07:39:27.245Z,78.63
2023-02-07T07:40:27.196Z,77.83
2023-02-07T07:41:27.183Z,78.63
2023-02-07T07:42:27.167Z,78.63
2023-02-07T07:43:27.170Z,77.99
2023-02-07T07:44:27.153Z,77.83
2023-02-07T07:45:27.101Z,78.15
2023-02-07T07:46:27.089Z,78.15
2023-02-07T07:47:28.068Z,79.92
2023-02-07T07:48:27.069Z,75.89
2023-02-07T07:49:27.052Z,79.28
2023-02-07T07:50:26.999Z,78.47
2023-02-07T07:51:26.973Z,77.83
2023-02-07T07:52:26.954Z,79.12
2023-02-07T07:53:26.936Z,77.50
2023-02-07T07:54:26.935Z,80.08
2023-02-07T07:55:26.885Z,79.12
2023-02-07T07:56:26.873Z,79.44
2023-02-07T07:57:26.843Z,80.08
2023-02-07T07:58:26.827Z,79.28
2023-02-07T07:59:27.667Z,78.47
2023-02-07T08:00:26.896Z,80.57
2023-02-07T08:01:27.227Z,79.60
2023-02-07T08:02:26.738Z,79.44
2023-02-07T08:03:26.752Z,78.31
2023-02-07T08:04:26.719Z,78.63
2023-02-07T08:05:26.671Z,78.79
2023-02-07T08:06:26.651Z,79.28
2023-02-07T08:07:26.630Z,79.44
2023-02-07T08:08:26.609Z,79.12
2023-02-07T08:09:26.616Z,77.83
2023-02-07T08:10:27.619Z,78.31
2023-02-07T08:11:26.551Z,77.83
2023-02-07T08:12:26.532Z,78.31
2023-02-07T08:13:29.528Z,79.44
2023-02-07T08:14:27.522Z,76.70
2023-02-07T08:15:27.498Z,78.79
2023-02-07T08:16:26.505Z,77.34
2023-02-07T08:17:26.432Z,79.28
2023-02-07T08:18:26.414Z,77.83
2023-02-07T08:19:26.424Z,77.99
2023-02-07T08:20:26.420Z,77.67
2023-02-07T08:21:26.360Z,77.50
2023-02-07T08:22:26.338Z,77.83
2023-02-07T08:23:26.322Z,77.99
2023-02-07T08:24:26.332Z,80.57
2023-02-07T08:25:26.281Z,81.05
2023-02-07T08:26:26.268Z,76.54
2023-02-07T08:27:26.253Z,78.79
2023-02-07T08:28:26.302Z,79.28
2023-02-07T08:29:26.233Z,78.47
2023-02-07T08:30:26.269Z,77.67
2023-02-07T08:31:26.235Z,76.05
2023-02-07T08:32:26.146Z,77.83
2023-02-07T08:33:26.130Z,77.18
2023-02-07T08:34:26.159Z,76.86
2023-02-07T08:35:26.105Z,77.99
2023-02-07T08:36:26.088Z,77.99
2023-02-07T08:37:26.051Z,78.31
2023-02-07T08:38:26.029Z,78.79
2023-02-07T08:39:26.081Z,79.12
2023-02-07T08:40:26.009Z,77.99
2023-02-07T08:41:25.976Z,77.34
2023-02-07T08:42:25.962Z,77.02
2023-02-07T08:43:25.940Z,78.63
2023-02-07T08:44:25.928Z,77.83
2023-02-07T08:45:25.997Z,77.50
2023-02-07T08:46:25.953Z,79.60
2023-02-07T08:47:25.865Z,79.12
2023-02-07T08:48:25.873Z,78.63
2023-02-07T08:49:25.834Z,79.44
2023-02-07T08:50:25.840Z,78.63
2023-02-07T08:51:25.797Z,83.31
2023-02-07T08:52:26.156Z,78.63
2023-02-07T08:53:25.756Z,76.54
2023-02-07T08:54:25.738Z,78.96
2023-02-07T08:55:25.746Z,80.08
2023-02-07T08:56:25.701Z,77.34
2023-02-07T08:57:25.707Z,79.60
2023-02-07T08:58:25.685Z,78.63
2023-02-07T08:59:25.672Z,77.50
2023-02-07T09:00:26.173Z,78.96
2023-02-07T09:01:25.644Z,77.18
2023-02-07T09:02:25.620Z,77.50
2023-02-07T09:03:25.593Z,79.44
2023-02-07T09:04:25.589Z,78.15
2023-02-07T09:05:25.598Z,78.47
2023-02-07T09:06:26.208Z,79.60
2023-02-07T09:07:25.498Z,77.99
2023-02-07T09:08:25.471Z,77.50
2023-02-07T09:09:25.464Z,78.79
2023-02-07T09:10:26.273Z,78.31
2023-02-07T09:11:25.567Z,77.83
2023-02-07T09:12:26.395Z,79.12
2023-02-07T09:13:25.376Z,77.34
2023-02-07T09:14:25.359Z,78.63
2023-02-07T09:15:25.367Z,78.96
2023-02-07T09:16:25.433Z,78.31
2023-02-07T09:17:25.297Z,78.96
2023-02-07T09:18:25.277Z,79.92
2023-02-07T09:19:25.264Z,78.96
2023-02-07T09:20:25.267Z,78.31
2023-02-07T09:21:25.216Z,77.50
2023-02-07T09:22:25.203Z,80.08
2023-02-07T09:23:25.189Z,78.47
2023-02-07T09:24:25.166Z,77.50
2023-02-07T09:25:25.179Z,80.08
2023-02-07T09:26:25.130Z,80.57
2023-02-07T09:27:25.110Z,79.12
2023-02-07T09:28:25.202Z,79.60
2023-02-07T09:29:25.072Z,79.44
2023-02-07T09:30:25.268Z,79.44
2023-02-07T09:31:25.136Z,80.24
2023-02-07T09:32:25.047Z,79.12
2023-02-07T09:33:25.013Z,79.60
2023-02-07T09:34:24.985Z,78.15
2023-02-07T09:35:24.991Z,78.63
2023-02-07T09:36:24.950Z,80.24
2023-02-07T09:37:24.924Z,78.79
2023-02-07T09:38:24.906Z,79.28
2023-02-07T09:39:24.899Z,78.63
2023-02-07T09:40:24.914Z,77.50
2023-02-07T09:41:24.850Z,76.86
2023-02-07T09:42:24.834Z,79.76
2023-02-07T09:43:25.002Z,77.99
2023-02-07T09:44:24.959Z,79.92
2023-02-07T09:45:24.936Z,79.12
2023-02-07T09:46:24.791Z,78.63
2023-02-07T09:47:24.742Z,79.76
2023-02-07T09:48:24.727Z,78.47
2023-02-07T09:49:24.714Z,78.31
2023-02-07T09:50:24.716Z,77.83
2023-02-07T09:51:24.666Z,79.76
2023-02-07T09:52:24.649Z,78.63
2023-02-07T09:53:24.649Z,79.28
2023-02-07T09:54:24.618Z,79.60
2023-02-07T09:55:24.626Z,78.63
2023-02-07T09:56:24.586Z,79.44
2023-02-07T09:57:24.566Z,78.15
2023-02-07T09:58:24.539Z,79.44
2023-02-07T09:59:24.599Z,79.28
2023-02-07T10:00:25.531Z,80.41
2023-02-07T10:01:24.547Z,77.67
2023-02-07T10:02:24.522Z,78.63
2023-02-07T10:03:24.493Z,77.99
2023-02-07T10:04:24.423Z,78.63
2023-02-07T10:05:24.432Z,77.34
2023-02-07T10:06:24.384Z,77.99
2023-02-07T10:07:24.365Z,80.24
2023-02-07T10:08:28.354Z,78.47
2023-02-07T10:09:26.335Z,79.92
2023-02-07T10:10:24.348Z,79.12
2023-02-07T10:11:24.347Z,79.76
2023-02-07T10:12:24.276Z,79.60
2023-02-07T10:13:24.264Z,77.34
2023-02-07T10:14:24.245Z,78.63
2023-02-07T10:15:24.250Z,78.63
2023-02-07T10:16:25.235Z,80.08
2023-02-07T10:17:31.617Z,79.76
2023-02-07T10:18:26.167Z,79.12
2023-02-07T10:19:24.149Z,80.24
2023-02-07T10:20:24.141Z,79.12
2023-02-07T10:21:24.140Z,78.15
2023-02-07T10:22:24.128Z,79.28
2023-02-07T10:23:24.069Z,79.76
2023-02-07T10:24:24.086Z,78.47
2023-02-07T10:25:24.084Z,80.89
2023-02-07T10:26:24.051Z,77.50
2023-02-07T10:27:23.999Z,77.99
2023-02-07T10:28:24.111Z,79.28
2023-02-07T10:29:23.975Z,78.15
2023-02-07T10:30:23.975Z,78.96
2023-02-07T10:31:24.067Z,78.63
2023-02-07T10:32:23.907Z,77.83
2023-02-07T10:33:23.879Z,77.83
2023-02-07T10:34:23.873Z,79.60
2023-02-07T10:35:23.871Z,79.92
2023-02-07T10:36:23.817Z,79.76
2023-02-07T10:37:23.805Z,79.76
2023-02-07T10:38:24.777Z,79.92
2023-02-07T10:39:23.752Z,78.47
2023-02-07T10:40:23.769Z,78.63
2023-02-07T10:41:23.718Z,79.28
2023-02-07T10:42:23.695Z,80.89
2023-02-07T10:43:23.668Z,78.96
2023-02-07T10:44:23.653Z,79.76
2023-02-07T10:45:23.664Z,79.76
2023-02-07T10:46:23.645Z,79.12
2023-02-07T10:47:23.584Z,79.12
2023-02-07T10:48:23.560Z,80.41
2023-02-07T10:49:25.057Z,80.24
2023-02-07T10:50:30.147Z,79.44
2023-02-07T10:51:25.505Z,79.12
2023-02-07T10:52:23.478Z,79.60
2023-02-07T10:53:23.458Z,79.60
2023-02-07T10:54:23.437Z,81.53
2023-02-07T10:55:23.443Z,80.24
2023-02-07T10:56:23.408Z,79.28
2023-02-07T10:57:23.377Z,79.76
2023-02-07T10:58:23.984Z,79.76
2023-02-07T10:59:24.331Z,81.86
2023-02-07T11:00:23.356Z,78.47
2023-02-07T11:01:23.319Z,79.92
2023-02-07T11:02:23.296Z,78.31
2023-02-07T11:03:23.253Z,78.96
2023-02-07T11:04:23.234Z,79.28
2023-02-07T11:05:23.276Z,79.60
2023-02-07T11:06:23.195Z,78.47
2023-02-07T11:07:23.208Z,79.12
2023-02-07T11:08:23.162Z,78.31
2023-02-07T11:09:23.145Z,78.63
2023-02-07T11:10:23.145Z,79.76
2023-02-07T11:11:23.099Z,79.44
2023-02-07T11:12:23.093Z,79.44
2023-02-07T11:13:23.063Z,80.57
2023-02-07T11:14:23.043Z,79.44
2023-02-07T11:15:23.052Z,79.60
2023-02-07T11:16:23.039Z,79.28
2023-02-07T11:17:22.993Z,79.44
2023-02-07T11:18:22.978Z,79.76
2023-02-07T11:19:22.962Z,76.38
2023-02-07T11:20:22.974Z,78.96
2023-02-07T11:21:22.921Z,79.92
2023-02-07T11:22:22.914Z,79.44
2023-02-07T11:23:22.911Z,77.99
2023-02-07T11:24:22.874Z,77.99
2023-02-07T11:25:22.858Z,78.63
2023-02-07T11:26:22.868Z,80.57
2023-02-07T11:27:22.828Z,80.57
2023-02-07T11:28:22.822Z,80.89
2023-02-07T11:29:22.806Z,79.76
2023-02-07T11:30:22.771Z,77.18
2023-02-07T11:31:22.814Z,79.76
2023-02-07T11:32:23.676Z,80.41
2023-02-07T11:33:23.725Z,79.60
2023-02-07T11:34:22.694Z,78.79
2023-02-07T11:35:22.676Z,78.79
2023-02-07T11:36:22.691Z,79.76
2023-02-07T11:37:22.653Z,79.28
2023-02-07T11:38:22.655Z,80.08
2023-02-07T11:39:22.611Z,79.76
2023-02-07T11:40:22.608Z,80.41
2023-02-07T11:41:22.605Z,79.28
2023-02-07T11:42:22.563Z,80.73
2023-02-07T11:43:22.545Z,79.12
2023-02-07T11:44:22.522Z,80.89
2023-02-07T11:45:22.521Z,78.15
2023-02-07T11:46:22.527Z,78.79
2023-02-07T11:47:22.478Z,79.28
2023-02-07T11:48:22.456Z,79.60
2023-02-07T11:49:22.432Z,80.08
2023-02-07T11:50:22.444Z,78.96
2023-02-07T11:51:22.419Z,79.28
2023-02-07T11:52:23.397Z,79.12
2023-02-07T11:53:22.367Z,79.60
2023-02-07T11:54:22.346Z,79.60
2023-02-07T11:55:22.334Z,78.96
2023-02-07T11:56:22.345Z,79.76
2023-02-07T11:57:22.300Z,78.31
2023-02-07T11:58:22.311Z,78.47
2023-02-07T11:59:22.260Z,79.60
2023-02-07T12:00:22.242Z,77.02
2023-02-07T12:01:22.225Z,80.24
2023-02-07T12:02:22.249Z,77.34
2023-02-07T12:03:22.217Z,77.34
2023-02-07T12:04:22.172Z,77.50
2023-02-07T12:05:22.200Z,78.47
2023-02-07T12:06:22.162Z,77.02
2023-02-07T12:07:22.116Z,78.63
2023-02-07T12:08:22.101Z,77.99
2023-02-07T12:09:22.079Z,79.76
2023-02-07T12:10:22.060Z,78.47
2023-02-07T12:11:22.071Z,77.83
2023-02-07T12:12:22.023Z,78.47
2023-02-07T12:13:22.019Z,78.15
2023-02-07T12:14:21.986Z,78.15
2023-02-07T12:15:21.967Z,79.12
2023-02-07T12:16:22.003Z,76.70
2023-02-07T12:17:21.940Z,78.96
2023-02-07T12:18:21.917Z,76.38
2023-02-07T12:19:21.903Z,77.18
2023-02-07T12:20:21.876Z,78.96
2023-02-07T12:21:21.892Z,78.47
2023-02-07T12:22:21.840Z,77.18
2023-02-07T12:23:41.173Z,77.99
2023-02-07T12:24:23.812Z,79.44
2023-02-07T12:25:21.801Z,77.02
2023-02-07T12:26:21.801Z,78.15
2023-02-07T12:27:21.759Z,79.60
2023-02-07T12:28:21.779Z,79.12
2023-02-07T12:29:21.745Z,77.99
2023-02-07T12:30:21.701Z,78.31
2023-02-07T12:31:21.748Z,79.76
2023-02-07T12:32:21.757Z,77.83
2023-02-07T12:33:21.651Z,78.47
2023-02-07T12:34:21.621Z,78.79
2023-02-07T12:35:21.604Z,79.12
2023-02-07T12:36:21.625Z,78.47
2023-02-07T12:37:21.575Z,79.28
2023-02-07T12:38:21.556Z,78.15
2023-02-07T12:39:21.541Z,77.67
2023-02-07T12:40:21.531Z,80.24
2023-02-07T12:41:21.527Z,81.05
2023-02-07T12:42:21.479Z,78.15
2023-02-07T12:43:21.461Z,79.76
2023-02-07T12:44:21.441Z,78.63
2023-02-07T12:45:21.421Z,80.89
2023-02-07T12:46:21.439Z,80.24
2023-02-07T12:47:21.386Z,80.24
2023-02-07T12:48:21.366Z,79.44
2023-02-07T12:49:21.349Z,80.73
2023-02-07T12:50:21.332Z,78.96
2023-02-07T12:51:21.337Z,78.63
2023-02-07T12:52:21.309Z,79.60